createdAt,value
2017-06-29T00:00:34.976Z,31.33
2017-06-29T00:03:22.802Z,31.93
2017-06-29T00:16:05.730Z,25.43
2017-06-29T00:18:32.782Z,33.33
2017-06-29T00:21:03.668Z,29.35
2017-06-29T00:23:31.988Z,24.32
2017-06-29T00:26:15.263Z,32.37
2017-06-29T00:31:18.007Z,32.43
2017-06-29T00:36:20.587Z,30.95
2017-06-29T00:38:56.471Z,43.02
2017-06-29T00:41:27.504Z,27.62
2017-06-29T00:43:55.447Z,28.65
2017-06-29T00:46:38.837Z,25.58
2017-06-29T00:49:10.771Z,36.90
2017-06-29T00:51:38.522Z,28.15
2017-06-29T00:54:05.445Z,34.22
2017-06-29T00:56:34.897Z,29.15
2017-06-29T00:59:02.669Z,32.05
2017-06-29T01:01:32.277Z,26.07
2017-06-29T01:04:03.808Z,28.22
2017-06-29T01:06:33.383Z,26.48
2017-06-29T01:09:04.540Z,30.18
2017-06-29T01:11:33.328Z,30.18
2017-06-29T01:14:05.589Z,30.07
2017-06-29T01:19:46.540Z,25.92
2017-06-29T01:22:16.632Z,38.95
2017-06-29T01:27:33.664Z,41.05
2017-06-29T01:32:49.079Z,24.38
2017-06-29T01:35:17.188Z,25.07
2017-06-29T01:37:45.587Z,32.88
2017-06-29T01:40:13.646Z,28.17
2017-06-29T01:42:55.952Z,31.65
2017-06-29T01:45:22.756Z,27.13
2017-06-29T01:47:51.929Z,26.68
2017-06-29T01:50:19.176Z,25.80
2017-06-29T01:52:46.940Z,32.88
2017-06-29T01:55:14.658Z,23.85
2017-06-29T02:00:32.110Z,31.48
2017-06-29T02:02:58.928Z,22.62
2017-06-29T02:05:26.646Z,28.92
2017-06-29T02:08:05.908Z,23.07
2017-06-29T02:13:27.251Z,22.22
2017-06-29T02:15:55.224Z,23.95
2017-06-29T02:18:32.917Z,24.62
2017-06-29T02:20:59.962Z,23.47
2017-06-29T02:28:48.284Z,21.38
2017-06-29T02:39:43.393Z,23.98
2017-06-29T02:42:10.927Z,22.02
2017-06-29T02:47:46.204Z,29.18
2017-06-29T02:50:13.240Z,28.73
2017-06-29T02:52:40.852Z,22.92
2017-06-29T02:55:09.530Z,29.87
2017-06-29T02:57:37.298Z,27.50
2017-06-29T03:05:51.950Z,31.35
2017-06-29T03:08:35.352Z,35.13
2017-06-29T03:11:16.320Z,33.23
2017-06-29T03:13:48.987Z,30.98
2017-06-29T03:16:16.198Z,34.72
2017-06-29T03:18:43.933Z,27.57
2017-06-29T03:21:12.295Z,31.18
2017-06-29T03:23:40.540Z,38.28
2017-06-29T03:26:07.348Z,30.07
2017-06-29T03:28:34.961Z,30.78
2017-06-29T03:56:45.858Z,31.90
2017-06-29T03:59:12.708Z,33.05
2017-06-29T04:01:40.538Z,28.63
2017-06-29T04:04:07.353Z,27.55
2017-06-29T04:09:12.791Z,33.57
2017-06-29T04:11:40.290Z,34.52
2017-06-29T04:14:10.290Z,33.72
2017-06-29T04:19:29.533Z,27.33
2017-06-29T04:21:56.332Z,30.93
2017-06-29T04:27:02.877Z,24.08
2017-06-29T04:29:30.110Z,18.67
2017-06-29T04:31:59.392Z,21.67
2017-06-29T04:34:29.584Z,21.73
2017-06-29T04:39:45.516Z,23.00
2017-06-29T04:42:12.391Z,13.87
2017-06-29T04:44:50.922Z,20.52
2017-06-29T04:47:19.382Z,23.10
2017-06-29T04:50:05.445Z,17.73
2017-06-29T04:55:26.226Z,15.65
2017-06-29T04:57:53.064Z,15.18
2017-06-29T05:03:03.489Z,15.77
2017-06-29T05:05:33.364Z,17.42
2017-06-29T05:08:03.870Z,17.55
2017-06-29T05:10:36.009Z,19.27
2017-06-29T05:13:06.170Z,18.63
2017-06-29T05:15:32.994Z,15.90
2017-06-29T05:18:11.830Z,15.20
2017-06-29T05:20:41.741Z,15.00
2017-06-29T05:31:14.857Z,16.90
2017-06-29T05:33:48.665Z,15.57
2017-06-29T05:36:25.392Z,14.23
2017-06-29T05:38:55.078Z,11.93
2017-06-29T05:56:49.291Z,10.18
2017-06-29T05:59:18.520Z,12.45
2017-06-29T06:01:47.485Z,10.73
2017-06-29T06:04:16.242Z,10.45
2017-06-29T06:09:28.155Z,11.27
2017-06-29T06:14:29.391Z,9.63
2017-06-29T06:17:00.495Z,11.40
2017-06-29T06:22:03.735Z,9.68
2017-06-29T06:27:36.773Z,10.76
2017-06-29T06:30:09.273Z,11.06
2017-06-29T06:52:59.033Z,9.68
2017-06-29T06:58:14.440Z,9.02
2017-06-29T07:00:51.480Z,10.78
2017-06-29T07:03:27.652Z,11.66
2017-06-29T07:05:59.411Z,7.06
2017-06-29T07:08:31.380Z,7.50
2017-06-29T07:13:55.018Z,7.28
2017-06-29T07:24:28.407Z,7.66
2017-06-29T07:32:09.218Z,9.44
2017-06-29T07:42:57.055Z,12.14
2017-06-29T07:53:34.413Z,16.60
2017-06-29T07:58:39.704Z,18.74
2017-06-29T08:15:02.554Z,22.54
2017-06-29T11:39:23.534Z,6.67
2017-06-29T11:41:52.063Z,6.64
2017-06-29T11:49:30.596Z,7.48
2017-06-29T11:51:58.679Z,8.92
2017-06-29T12:41:18.258Z,15.43
2017-06-29T12:43:45.245Z,17.00
2017-06-29T12:46:12.914Z,17.44
2017-06-29T12:48:40.153Z,18.10
2017-06-29T12:51:10.799Z,18.44
2017-06-29T12:53:37.858Z,18.28
2017-06-29T12:56:04.768Z,16.70
2017-06-29T12:58:31.605Z,14.62
2017-06-29T13:00:59.093Z,13.20
2017-06-29T13:03:26.015Z,14.16
2017-06-29T13:05:54.458Z,14.12
2017-06-29T13:08:22.681Z,13.94
2017-06-29T13:10:49.781Z,13.56
2017-06-29T13:13:16.843Z,14.50
2017-06-29T13:15:44.237Z,15.20
2017-06-29T13:18:11.140Z,15.70
2017-06-29T13:20:38.090Z,15.74
2017-06-29T13:23:05.246Z,15.98
2017-06-29T13:28:03.340Z,15.37
2017-06-29T13:30:30.457Z,14.90
2017-06-29T13:32:57.444Z,14.58
2017-06-29T13:35:24.930Z,13.53
2017-06-29T13:37:52.263Z,12.44
2017-06-29T13:40:19.698Z,12.47
2017-06-29T13:45:18.424Z,11.64
2017-06-29T14:07:00.452Z,12.68
2017-06-29T14:09:27.636Z,12.06
2017-06-29T14:14:26.807Z,13.38
2017-06-29T14:16:54.184Z,12.88
2017-06-29T14:19:21.453Z,13.64
2017-06-29T14:21:49.205Z,13.38
2017-06-29T14:26:48.767Z,14.58
2017-06-29T14:29:16.592Z,14.90
2017-06-29T14:31:44.078Z,15.25
2017-06-29T14:34:11.341Z,15.92
2017-06-29T14:36:42.887Z,17.46
2017-06-29T14:39:10.969Z,16.92
2017-06-29T14:41:39.035Z,18.22
2017-06-29T14:44:06.748Z,18.55
2017-06-29T14:49:08.750Z,20.12
2017-06-29T14:51:35.764Z,18.57
2017-06-29T14:54:03.701Z,19.70
2017-06-29T14:56:30.891Z,18.57
2017-06-29T14:58:58.665Z,18.25
2017-06-29T15:01:26.386Z,17.80
2017-06-29T15:03:55.616Z,17.28
2017-06-29T15:06:26.630Z,18.70
2017-06-29T15:08:53.921Z,18.90
2017-06-29T15:13:53.712Z,17.93
2017-06-29T15:16:21.378Z,17.26
2017-06-29T15:18:48.347Z,17.66
2017-06-29T15:21:16.069Z,15.74
2017-06-29T15:23:44.151Z,18.12
2017-06-29T15:31:18.182Z,17.06
2017-06-29T15:33:45.864Z,16.44
2017-06-29T15:41:39.107Z,17.70
2017-06-29T15:51:41.658Z,15.45
